sensor_id;sensor_type;location;lat;lon;timestamp;P1;durP1;ratioP1;P2;durP2;ratioP2
72413;SDS011;60995;52.154;4.498;2022-08-19T00:00:15;13.10;;;8.40;;
72413;SDS011;60995;52.154;4.498;2022-08-19T00:02:32;14.05;;;6.78;;
72413;SDS011;60995;52.154;4.498;2022-08-19T00:04:50;17.30;;;9.55;;
72413;SDS011;60995;52.154;4.498;2022-08-19T00:07:08;15.73;;;9.32;;
72413;SDS011;60995;52.154;4.498;2022-08-19T00:09:25;16.65;;;9.30;;
72413;SDS011;60995;52.154;4.498;2022-08-19T00:11:42;16.70;;;9.60;;
72413;SDS011;60995;52.154;4.498;2022-08-19T00:13:59;13.15;;;9.05;;
72413;SDS011;60995;52.154;4.498;2022-08-19T00:16:16;16.25;;;9.55;;
72413;SDS011;60995;52.154;4.498;2022-08-19T00:18:36;12.70;;;6.20;;
72413;SDS011;60995;52.154;4.498;2022-08-19T00:20:52;16.30;;;8.13;;
72413;SDS011;60995;52.154;4.498;2022-08-19T00:23:09;19.58;;;8.90;;
72413;SDS011;60995;52.154;4.498;2022-08-19T00:25:26;12.90;;;8.13;;
72413;SDS011;60995;52.154;4.498;2022-08-19T00:27:42;14.00;;;8.20;;
72413;SDS011;60995;52.154;4.498;2022-08-19T00:29:58;13.70;;;8.35;;
72413;SDS011;60995;52.154;4.498;2022-08-19T00:32:16;15.68;;;9.15;;
72413;SDS011;60995;52.154;4.498;2022-08-19T00:34:32;14.48;;;9.60;;
72413;SDS011;60995;52.154;4.498;2022-08-19T00:36:49;15.55;;;9.00;;
72413;SDS011;60995;52.154;4.498;2022-08-19T00:39:05;17.58;;;8.45;;
72413;SDS011;60995;52.154;4.498;2022-08-19T00:41:23;17.77;;;8.90;;
72413;SDS011;60995;52.154;4.498;2022-08-19T00:43:41;17.48;;;9.02;;
72413;SDS011;60995;52.154;4.498;2022-08-19T00:45:57;15.88;;;8.25;;
72413;SDS011;60995;52.154;4.498;2022-08-19T00:48:14;13.90;;;6.38;;
72413;SDS011;60995;52.154;4.498;2022-08-19T00:50:32;13.63;;;7.15;;
72413;SDS011;60995;52.154;4.498;2022-08-19T00:52:50;19.35;;;8.20;;
72413;SDS011;60995;52.154;4.498;2022-08-19T00:55:08;11.43;;;7.35;;
72413;SDS011;60995;52.154;4.498;2022-08-19T00:57:28;12.45;;;7.72;;
72413;SDS011;60995;52.154;4.498;2022-08-19T00:59:54;14.07;;;8.88;;
72413;SDS011;60995;52.154;4.498;2022-08-19T01:02:14;13.50;;;8.48;;
72413;SDS011;60995;52.154;4.498;2022-08-19T01:04:32;15.88;;;9.07;;
72413;SDS011;60995;52.154;4.498;2022-08-19T01:06:48;14.27;;;9.07;;
72413;SDS011;60995;52.154;4.498;2022-08-19T01:09:05;17.23;;;9.60;;
72413;SDS011;60995;52.154;4.498;2022-08-19T01:11:21;16.23;;;10.30;;
72413;SDS011;60995;52.154;4.498;2022-08-19T01:13:37;18.20;;;10.55;;
72413;SDS011;60995;52.154;4.498;2022-08-19T01:15:59;20.15;;;10.65;;
72413;SDS011;60995;52.154;4.498;2022-08-19T01:18:20;18.83;;;10.98;;
72413;SDS011;60995;52.154;4.498;2022-08-19T01:20:38;18.80;;;11.23;;
72413;SDS011;60995;52.154;4.498;2022-08-19T01:22:57;17.95;;;11.18;;
72413;SDS011;60995;52.154;4.498;2022-08-19T01:25:18;18.38;;;11.45;;
72413;SDS011;60995;52.154;4.498;2022-08-19T01:27:42;21.52;;;12.57;;
72413;SDS011;60995;52.154;4.498;2022-08-19T01:30:03;17.50;;;11.93;;
72413;SDS011;60995;52.154;4.498;2022-08-19T01:32:22;20.08;;;13.07;;
72413;SDS011;60995;52.154;4.498;2022-08-19T01:34:42;16.27;;;10.38;;
72413;SDS011;60995;52.154;4.498;2022-08-19T01:37:05;18.88;;;12.45;;
72413;SDS011;60995;52.154;4.498;2022-08-19T01:39:26;21.80;;;12.98;;
72413;SDS011;60995;52.154;4.498;2022-08-19T01:41:43;24.80;;;13.57;;
72413;SDS011;60995;52.154;4.498;2022-08-19T01:44:00;22.08;;;14.15;;
72413;SDS011;60995;52.154;4.498;2022-08-19T01:46:19;20.45;;;13.30;;
72413;SDS011;60995;52.154;4.498;2022-08-19T01:48:38;18.63;;;13.00;;
72413;SDS011;60995;52.154;4.498;2022-08-19T01:50:57;20.77;;;13.23;;
72413;SDS011;60995;52.154;4.498;2022-08-19T01:53:13;23.27;;;14.32;;
72413;SDS011;60995;52.154;4.498;2022-08-19T01:55:30;23.15;;;14.15;;
72413;SDS011;60995;52.154;4.498;2022-08-19T01:57:50;22.33;;;13.68;;
72413;SDS011;60995;52.154;4.498;2022-08-19T02:00:15;24.65;;;14.45;;
72413;SDS011;60995;52.154;4.498;2022-08-19T02:02:34;20.10;;;13.32;;
72413;SDS011;60995;52.154;4.498;2022-08-19T02:04:51;23.80;;;14.48;;
72413;SDS011;60995;52.154;4.498;2022-08-19T02:07:07;24.75;;;15.35;;
72413;SDS011;60995;52.154;4.498;2022-08-19T02:09:23;24.13;;;14.95;;
72413;SDS011;60995;52.154;4.498;2022-08-19T02:11:40;23.65;;;14.23;;
72413;SDS011;60995;52.154;4.498;2022-08-19T02:13:58;24.92;;;16.08;;
72413;SDS011;60995;52.154;4.498;2022-08-19T02:16:18;25.00;;;15.38;;
72413;SDS011;60995;52.154;4.498;2022-08-19T02:18:35;22.50;;;15.52;;
72413;SDS011;60995;52.154;4.498;2022-08-19T02:20:52;23.90;;;16.13;;
72413;SDS011;60995;52.154;4.498;2022-08-19T02:23:08;27.52;;;17.52;;
72413;SDS011;60995;52.154;4.498;2022-08-19T02:25:27;28.50;;;18.48;;
72413;SDS011;60995;52.154;4.498;2022-08-19T02:27:43;30.98;;;19.55;;
72413;SDS011;60995;52.154;4.498;2022-08-19T02:30:00;31.98;;;22.15;;
72413;SDS011;60995;52.154;4.498;2022-08-19T02:32:19;33.78;;;22.30;;
72413;SDS011;60995;52.154;4.498;2022-08-19T02:34:36;31.52;;;21.92;;
72413;SDS011;60995;52.154;4.498;2022-08-19T02:36:52;38.78;;;26.33;;
72413;SDS011;60995;52.154;4.498;2022-08-19T02:39:09;42.47;;;27.65;;
72413;SDS011;60995;52.154;4.498;2022-08-19T02:41:27;45.33;;;26.08;;
72413;SDS011;60995;52.154;4.498;2022-08-19T02:43:48;48.10;;;30.52;;
72413;SDS011;60995;52.154;4.498;2022-08-19T02:46:15;53.85;;;30.50;;
72413;SDS011;60995;52.154;4.498;2022-08-19T02:48:42;48.58;;;29.25;;
72413;SDS011;60995;52.154;4.498;2022-08-19T02:50:59;56.40;;;32.50;;
72413;SDS011;60995;52.154;4.498;2022-08-19T02:53:15;58.30;;;31.83;;
72413;SDS011;60995;52.154;4.498;2022-08-19T02:55:31;57.60;;;34.00;;
72413;SDS011;60995;52.154;4.498;2022-08-19T02:57:48;51.08;;;30.88;;
72413;SDS011;60995;52.154;4.498;2022-08-19T03:00:05;50.05;;;31.77;;
72413;SDS011;60995;52.154;4.498;2022-08-19T03:02:24;49.83;;;30.13;;
72413;SDS011;60995;52.154;4.498;2022-08-19T03:04:40;52.00;;;31.75;;
72413;SDS011;60995;52.154;4.498;2022-08-19T03:06:57;46.75;;;27.98;;
72413;SDS011;60995;52.154;4.498;2022-08-19T03:09:14;53.00;;;31.92;;
72413;SDS011;60995;52.154;4.498;2022-08-19T03:11:32;51.45;;;29.30;;
72413;SDS011;60995;52.154;4.498;2022-08-19T03:13:49;57.13;;;33.85;;
72413;SDS011;60995;52.154;4.498;2022-08-19T03:16:06;53.17;;;33.17;;
72413;SDS011;60995;52.154;4.498;2022-08-19T03:18:22;50.65;;;31.17;;
72413;SDS011;60995;52.154;4.498;2022-08-19T03:20:46;54.97;;;32.30;;
72413;SDS011;60995;52.154;4.498;2022-08-19T03:23:05;42.78;;;27.45;;
72413;SDS011;60995;52.154;4.498;2022-08-19T03:25:22;55.65;;;32.75;;
72413;SDS011;60995;52.154;4.498;2022-08-19T03:27:38;57.42;;;31.42;;
72413;SDS011;60995;52.154;4.498;2022-08-19T03:29:54;43.00;;;25.85;;
72413;SDS011;60995;52.154;4.498;2022-08-19T03:32:11;55.15;;;30.63;;
72413;SDS011;60995;52.154;4.498;2022-08-19T03:34:28;59.00;;;33.40;;
72413;SDS011;60995;52.154;4.498;2022-08-19T03:36:47;67.35;;;35.90;;
72413;SDS011;60995;52.154;4.498;2022-08-19T03:39:04;52.97;;;29.23;;
72413;SDS011;60995;52.154;4.498;2022-08-19T03:41:22;66.50;;;35.50;;
72413;SDS011;60995;52.154;4.498;2022-08-19T03:43:42;64.72;;;36.03;;
72413;SDS011;60995;52.154;4.498;2022-08-19T03:46:07;64.65;;;35.28;;
72413;SDS011;60995;52.154;4.498;2022-08-19T03:48:27;71.63;;;37.03;;
72413;SDS011;60995;52.154;4.498;2022-08-19T03:50:43;75.47;;;38.90;;
72413;SDS011;60995;52.154;4.498;2022-08-19T03:53:00;77.45;;;38.00;;
72413;SDS011;60995;52.154;4.498;2022-08-19T03:55:17;46.75;;;29.10;;
72413;SDS011;60995;52.154;4.498;2022-08-19T03:57:34;74.60;;;38.17;;
72413;SDS011;60995;52.154;4.498;2022-08-19T03:59:50;77.03;;;38.97;;
72413;SDS011;60995;52.154;4.498;2022-08-19T04:02:08;68.78;;;36.22;;
72413;SDS011;60995;52.154;4.498;2022-08-19T04:04:28;67.93;;;36.15;;
72413;SDS011;60995;52.154;4.498;2022-08-19T04:06:44;68.75;;;36.65;;
72413;SDS011;60995;52.154;4.498;2022-08-19T04:09:03;69.88;;;38.70;;
72413;SDS011;60995;52.154;4.498;2022-08-19T04:11:29;75.95;;;39.10;;
72413;SDS011;60995;52.154;4.498;2022-08-19T04:13:57;74.75;;;38.05;;
72413;SDS011;60995;52.154;4.498;2022-08-19T04:16:15;70.35;;;36.33;;
72413;SDS011;60995;52.154;4.498;2022-08-19T04:18:32;82.82;;;41.85;;
72413;SDS011;60995;52.154;4.498;2022-08-19T04:20:49;69.68;;;37.92;;
72413;SDS011;60995;52.154;4.498;2022-08-19T04:23:07;77.18;;;39.58;;
72413;SDS011;60995;52.154;4.498;2022-08-19T04:25:24;74.78;;;40.47;;
72413;SDS011;60995;52.154;4.498;2022-08-19T04:27:40;82.53;;;40.83;;
72413;SDS011;60995;52.154;4.498;2022-08-19T04:29:58;76.80;;;40.22;;
72413;SDS011;60995;52.154;4.498;2022-08-19T04:32:15;85.60;;;43.47;;
72413;SDS011;60995;52.154;4.498;2022-08-19T04:34:31;96.45;;;44.53;;
72413;SDS011;60995;52.154;4.498;2022-08-19T04:36:47;82.07;;;41.78;;
72413;SDS011;60995;52.154;4.498;2022-08-19T04:39:08;99.03;;;46.55;;
72413;SDS011;60995;52.154;4.498;2022-08-19T04:41:29;73.50;;;38.08;;
72413;SDS011;60995;52.154;4.498;2022-08-19T04:44:04;93.03;;;44.80;;
72413;SDS011;60995;52.154;4.498;2022-08-19T04:46:21;104.75;;;48.35;;
72413;SDS011;60995;52.154;4.498;2022-08-19T04:48:38;100.65;;;45.35;;
72413;SDS011;60995;52.154;4.498;2022-08-19T04:50:56;101.57;;;48.58;;
72413;SDS011;60995;52.154;4.498;2022-08-19T04:53:17;102.15;;;47.85;;
72413;SDS011;60995;52.154;4.498;2022-08-19T04:55:33;118.88;;;51.97;;
72413;SDS011;60995;52.154;4.498;2022-08-19T04:57:51;110.63;;;49.97;;
72413;SDS011;60995;52.154;4.498;2022-08-19T05:00:11;116.00;;;51.58;;
72413;SDS011;60995;52.154;4.498;2022-08-19T05:02:28;110.35;;;49.53;;
72413;SDS011;60995;52.154;4.498;2022-08-19T05:04:47;109.28;;;50.53;;
72413;SDS011;60995;52.154;4.498;2022-08-19T05:07:04;99.88;;;46.63;;
72413;SDS011;60995;52.154;4.498;2022-08-19T05:09:29;112.88;;;49.45;;
72413;SDS011;60995;52.154;4.498;2022-08-19T05:11:47;107.20;;;48.65;;
72413;SDS011;60995;52.154;4.498;2022-08-19T05:14:07;104.88;;;46.65;;
72413;SDS011;60995;52.154;4.498;2022-08-19T05:16:28;106.35;;;46.80;;
72413;SDS011;60995;52.154;4.498;2022-08-19T05:18:47;97.38;;;45.88;;
72413;SDS011;60995;52.154;4.498;2022-08-19T05:21:27;92.35;;;42.80;;
72413;SDS011;60995;52.154;4.498;2022-08-19T05:24:04;90.88;;;43.83;;
72413;SDS011;60995;52.154;4.498;2022-08-19T05:26:25;94.05;;;43.63;;
72413;SDS011;60995;52.154;4.498;2022-08-19T05:28:46;106.75;;;46.42;;
72413;SDS011;60995;52.154;4.498;2022-08-19T05:31:11;92.18;;;45.47;;
72413;SDS011;60995;52.154;4.498;2022-08-19T05:33:35;94.53;;;45.72;;
72413;SDS011;60995;52.154;4.498;2022-08-19T05:35:56;97.43;;;44.05;;
72413;SDS011;60995;52.154;4.498;2022-08-19T05:38:17;90.63;;;43.45;;
72413;SDS011;60995;52.154;4.498;2022-08-19T05:40:35;88.88;;;44.50;;
72413;SDS011;60995;52.154;4.498;2022-08-19T05:43:03;94.82;;;44.30;;
72413;SDS011;60995;52.154;4.498;2022-08-19T05:45:21;87.43;;;41.13;;
72413;SDS011;60995;52.154;4.498;2022-08-19T05:47:38;86.20;;;40.67;;
72413;SDS011;60995;52.154;4.498;2022-08-19T05:49:54;91.45;;;43.28;;
72413;SDS011;60995;52.154;4.498;2022-08-19T05:52:14;83.93;;;40.60;;
72413;SDS011;60995;52.154;4.498;2022-08-19T05:54:31;82.60;;;40.35;;
72413;SDS011;60995;52.154;4.498;2022-08-19T05:56:49;80.50;;;39.72;;
72413;SDS011;60995;52.154;4.498;2022-08-19T05:59:11;76.22;;;38.95;;
72413;SDS011;60995;52.154;4.498;2022-08-19T06:01:27;76.97;;;38.80;;
72413;SDS011;60995;52.154;4.498;2022-08-19T06:03:44;68.07;;;35.75;;
72413;SDS011;60995;52.154;4.498;2022-08-19T06:06:00;78.28;;;39.17;;
72413;SDS011;60995;52.154;4.498;2022-08-19T06:08:18;71.15;;;37.50;;
72413;SDS011;60995;52.154;4.498;2022-08-19T06:10:35;72.38;;;35.92;;
72413;SDS011;60995;52.154;4.498;2022-08-19T06:12:52;70.78;;;36.03;;
72413;SDS011;60995;52.154;4.498;2022-08-19T06:15:12;70.97;;;37.33;;
72413;SDS011;60995;52.154;4.498;2022-08-19T06:17:30;75.30;;;36.13;;
72413;SDS011;60995;52.154;4.498;2022-08-19T06:19:46;62.05;;;32.55;;
72413;SDS011;60995;52.154;4.498;2022-08-19T06:22:03;62.78;;;33.33;;
72413;SDS011;60995;52.154;4.498;2022-08-19T06:24:21;65.15;;;33.22;;
72413;SDS011;60995;52.154;4.498;2022-08-19T06:26:41;62.92;;;33.42;;
72413;SDS011;60995;52.154;4.498;2022-08-19T06:29:01;51.45;;;28.90;;
72413;SDS011;60995;52.154;4.498;2022-08-19T06:31:23;63.33;;;30.40;;
72413;SDS011;60995;52.154;4.498;2022-08-19T06:33:43;56.80;;;28.70;;
72413;SDS011;60995;52.154;4.498;2022-08-19T06:36:00;50.65;;;27.02;;
72413;SDS011;60995;52.154;4.498;2022-08-19T06:38:17;42.85;;;24.85;;
72413;SDS011;60995;52.154;4.498;2022-08-19T06:40:33;44.28;;;26.25;;
72413;SDS011;60995;52.154;4.498;2022-08-19T06:42:49;47.38;;;25.63;;
72413;SDS011;60995;52.154;4.498;2022-08-19T06:45:06;51.22;;;25.20;;
72413;SDS011;60995;52.154;4.498;2022-08-19T06:47:24;40.17;;;24.58;;
72413;SDS011;60995;52.154;4.498;2022-08-19T06:49:40;37.03;;;21.90;;
72413;SDS011;60995;52.154;4.498;2022-08-19T06:51:57;34.88;;;20.02;;
72413;SDS011;60995;52.154;4.498;2022-08-19T06:54:16;42.63;;;21.75;;
72413;SDS011;60995;52.154;4.498;2022-08-19T06:56:34;32.92;;;21.05;;
72413;SDS011;60995;52.154;4.498;2022-08-19T06:58:51;35.05;;;19.55;;
72413;SDS011;60995;52.154;4.498;2022-08-19T07:01:08;35.38;;;18.42;;
72413;SDS011;60995;52.154;4.498;2022-08-19T07:03:25;40.83;;;18.40;;
72413;SDS011;60995;52.154;4.498;2022-08-19T07:05:42;30.73;;;17.30;;
72413;SDS011;60995;52.154;4.498;2022-08-19T07:07:59;28.63;;;15.63;;
72413;SDS011;60995;52.154;4.498;2022-08-19T07:10:15;34.00;;;15.43;;
72413;SDS011;60995;52.154;4.498;2022-08-19T07:12:31;29.88;;;15.00;;
72413;SDS011;60995;52.154;4.498;2022-08-19T07:14:49;29.45;;;14.95;;
72413;SDS011;60995;52.154;4.498;2022-08-19T07:17:06;25.70;;;14.35;;
72413;SDS011;60995;52.154;4.498;2022-08-19T07:19:27;28.90;;;15.52;;
72413;SDS011;60995;52.154;4.498;2022-08-19T07:21:45;28.67;;;14.93;;
72413;SDS011;60995;52.154;4.498;2022-08-19T07:24:05;34.33;;;15.95;;
72413;SDS011;60995;52.154;4.498;2022-08-19T07:26:23;29.48;;;14.40;;
72413;SDS011;60995;52.154;4.498;2022-08-19T07:28:42;30.35;;;14.18;;
72413;SDS011;60995;52.154;4.498;2022-08-19T07:31:00;25.98;;;13.75;;
72413;SDS011;60995;52.154;4.498;2022-08-19T07:33:17;22.15;;;13.02;;
72413;SDS011;60995;52.154;4.498;2022-08-19T07:35:39;31.38;;;13.18;;
72413;SDS011;60995;52.154;4.498;2022-08-19T07:38:04;25.35;;;12.43;;
72413;SDS011;60995;52.154;4.498;2022-08-19T07:40:23;22.60;;;11.38;;
72413;SDS011;60995;52.154;4.498;2022-08-19T07:42:40;25.15;;;11.35;;
72413;SDS011;60995;52.154;4.498;2022-08-19T07:44:58;21.45;;;10.10;;
72413;SDS011;60995;52.154;4.498;2022-08-19T07:47:14;24.42;;;10.30;;
72413;SDS011;60995;52.154;4.498;2022-08-19T07:49:32;18.33;;;9.70;;
72413;SDS011;60995;52.154;4.498;2022-08-19T07:51:50;23.70;;;10.00;;
72413;SDS011;60995;52.154;4.498;2022-08-19T07:54:11;18.27;;;7.80;;
72413;SDS011;60995;52.154;4.498;2022-08-19T07:56:28;24.63;;;7.18;;
72413;SDS011;60995;52.154;4.498;2022-08-19T07:58:45;20.30;;;6.75;;
72413;SDS011;60995;52.154;4.498;2022-08-19T08:01:05;19.02;;;6.72;;
72413;SDS011;60995;52.154;4.498;2022-08-19T08:03:25;17.02;;;5.80;;
72413;SDS011;60995;52.154;4.498;2022-08-19T08:06:02;17.95;;;5.80;;
72413;SDS011;60995;52.154;4.498;2022-08-19T08:08:38;12.77;;;5.55;;
72413;SDS011;60995;52.154;4.498;2022-08-19T08:11:12;16.30;;;5.43;;
72413;SDS011;60995;52.154;4.498;2022-08-19T08:13:31;11.73;;;5.60;;
72413;SDS011;60995;52.154;4.498;2022-08-19T08:15:50;13.73;;;5.35;;
72413;SDS011;60995;52.154;4.498;2022-08-19T08:18:07;18.83;;;6.00;;
72413;SDS011;60995;52.154;4.498;2022-08-19T08:20:24;15.90;;;6.90;;
72413;SDS011;60995;52.154;4.498;2022-08-19T08:22:44;16.33;;;7.30;;
72413;SDS011;60995;52.154;4.498;2022-08-19T08:25:22;15.98;;;6.28;;
72413;SDS011;60995;52.154;4.498;2022-08-19T08:27:40;15.20;;;5.63;;
72413;SDS011;60995;52.154;4.498;2022-08-19T08:30:16;14.18;;;5.75;;
72413;SDS011;60995;52.154;4.498;2022-08-19T08:32:51;12.88;;;5.70;;
72413;SDS011;60995;52.154;4.498;2022-08-19T08:35:19;15.50;;;5.85;;
72413;SDS011;60995;52.154;4.498;2022-08-19T08:37:46;14.38;;;5.57;;
72413;SDS011;60995;52.154;4.498;2022-08-19T08:40:12;16.27;;;5.95;;
72413;SDS011;60995;52.154;4.498;2022-08-19T08:45:46;13.15;;;5.13;;
72413;SDS011;60995;52.154;4.498;2022-08-19T08:48:20;13.38;;;5.38;;
72413;SDS011;60995;52.154;4.498;2022-08-19T08:50:58;16.92;;;5.30;;
72413;SDS011;60995;52.154;4.498;2022-08-19T08:53:26;14.55;;;5.57;;
72413;SDS011;60995;52.154;4.498;2022-08-19T08:55:52;13.68;;;5.70;;
72413;SDS011;60995;52.154;4.498;2022-08-19T09:01:09;17.98;;;5.10;;
72413;SDS011;60995;52.154;4.498;2022-08-19T09:03:27;10.75;;;4.18;;
72413;SDS011;60995;52.154;4.498;2022-08-19T09:08:38;15.10;;;4.93;;
72413;SDS011;60995;52.154;4.498;2022-08-19T09:11:19;17.15;;;4.78;;
72413;SDS011;60995;52.154;4.498;2022-08-19T09:17:10;11.70;;;4.45;;
72413;SDS011;60995;52.154;4.498;2022-08-19T09:19:34;12.57;;;5.00;;
72413;SDS011;60995;52.154;4.498;2022-08-19T09:22:11;12.73;;;4.45;;
72413;SDS011;60995;52.154;4.498;2022-08-19T09:24:28;14.93;;;4.90;;
72413;SDS011;60995;52.154;4.498;2022-08-19T09:26:44;12.82;;;5.47;;
72413;SDS011;60995;52.154;4.498;2022-08-19T09:29:03;16.13;;;5.25;;
72413;SDS011;60995;52.154;4.498;2022-08-19T09:31:23;16.38;;;4.45;;
72413;SDS011;60995;52.154;4.498;2022-08-19T09:33:43;10.50;;;3.58;;
72413;SDS011;60995;52.154;4.498;2022-08-19T09:36:01;10.38;;;3.80;;
72413;SDS011;60995;52.154;4.498;2022-08-19T09:38:23;11.90;;;4.00;;
72413;SDS011;60995;52.154;4.498;2022-08-19T09:40:39;12.98;;;3.70;;
72413;SDS011;60995;52.154;4.498;2022-08-19T09:42:56;10.00;;;3.60;;
72413;SDS011;60995;52.154;4.498;2022-08-19T09:45:19;10.68;;;3.65;;
72413;SDS011;60995;52.154;4.498;2022-08-19T09:47:37;13.85;;;3.50;;
72413;SDS011;60995;52.154;4.498;2022-08-19T09:49:54;10.68;;;3.38;;
72413;SDS011;60995;52.154;4.498;2022-08-19T09:52:11;10.75;;;3.45;;
72413;SDS011;60995;52.154;4.498;2022-08-19T09:54:31;13.13;;;3.88;;
72413;SDS011;60995;52.154;4.498;2022-08-19T09:56:48;11.30;;;3.20;;
72413;SDS011;60995;52.154;4.498;2022-08-19T09:59:05;8.50;;;3.35;;
72413;SDS011;60995;52.154;4.498;2022-08-19T10:01:24;11.63;;;3.72;;
72413;SDS011;60995;52.154;4.498;2022-08-19T10:03:46;10.23;;;3.15;;
72413;SDS011;60995;52.154;4.498;2022-08-19T10:06:11;11.05;;;3.33;;
72413;SDS011;60995;52.154;4.498;2022-08-19T10:08:33;13.60;;;3.17;;
72413;SDS011;60995;52.154;4.498;2022-08-19T10:10:54;10.68;;;3.40;;
72413;SDS011;60995;52.154;4.498;2022-08-19T10:13:13;10.70;;;2.85;;
72413;SDS011;60995;52.154;4.498;2022-08-19T10:15:37;11.55;;;2.80;;
72413;SDS011;60995;52.154;4.498;2022-08-19T10:17:56;7.60;;;2.88;;
72413;SDS011;60995;52.154;4.498;2022-08-19T10:20:14;12.93;;;2.92;;
72413;SDS011;60995;52.154;4.498;2022-08-19T10:22:30;10.68;;;3.30;;
72413;SDS011;60995;52.154;4.498;2022-08-19T10:24:51;7.90;;;3.00;;
72413;SDS011;60995;52.154;4.498;2022-08-19T10:27:08;8.40;;;3.63;;
72413;SDS011;60995;52.154;4.498;2022-08-19T10:29:26;9.40;;;3.50;;
72413;SDS011;60995;52.154;4.498;2022-08-19T10:31:43;8.88;;;3.13;;
72413;SDS011;60995;52.154;4.498;2022-08-19T10:34:03;9.48;;;4.80;;
72413;SDS011;60995;52.154;4.498;2022-08-19T10:36:21;15.80;;;7.55;;
72413;SDS011;60995;52.154;4.498;2022-08-19T10:39:00;9.10;;;3.90;;
72413;SDS011;60995;52.154;4.498;2022-08-19T10:41:21;8.15;;;2.50;;
72413;SDS011;60995;52.154;4.498;2022-08-19T10:43:41;10.60;;;2.85;;
72413;SDS011;60995;52.154;4.498;2022-08-19T10:46:02;8.98;;;2.58;;
72413;SDS011;60995;52.154;4.498;2022-08-19T10:48:19;8.32;;;2.55;;
72413;SDS011;60995;52.154;4.498;2022-08-19T10:50:36;8.82;;;2.65;;
72413;SDS011;60995;52.154;4.498;2022-08-19T10:53:11;6.72;;;2.00;;
72413;SDS011;60995;52.154;4.498;2022-08-19T10:55:29;8.20;;;2.20;;
72413;SDS011;60995;52.154;4.498;2022-08-19T10:58:14;7.65;;;2.28;;
72413;SDS011;60995;52.154;4.498;2022-08-19T11:00:38;11.45;;;2.30;;
72413;SDS011;60995;52.154;4.498;2022-08-19T11:02:54;8.35;;;2.20;;
72413;SDS011;60995;52.154;4.498;2022-08-19T11:05:11;7.03;;;2.33;;
72413;SDS011;60995;52.154;4.498;2022-08-19T11:07:33;7.00;;;2.00;;
72413;SDS011;60995;52.154;4.498;2022-08-19T11:09:49;7.25;;;2.20;;
72413;SDS011;60995;52.154;4.498;2022-08-19T11:12:06;6.80;;;1.65;;
72413;SDS011;60995;52.154;4.498;2022-08-19T11:14:25;6.03;;;1.60;;
72413;SDS011;60995;52.154;4.498;2022-08-19T11:16:41;6.50;;;2.00;;
72413;SDS011;60995;52.154;4.498;2022-08-19T11:18:59;6.45;;;1.85;;
72413;SDS011;60995;52.154;4.498;2022-08-19T11:23:40;6.47;;;2.33;;
72413;SDS011;60995;52.154;4.498;2022-08-19T11:25:56;7.32;;;1.83;;
72413;SDS011;60995;52.154;4.498;2022-08-19T11:28:15;5.80;;;2.22;;
72413;SDS011;60995;52.154;4.498;2022-08-19T11:30:31;7.35;;;1.80;;
72413;SDS011;60995;52.154;4.498;2022-08-19T11:32:49;7.00;;;1.52;;
72413;SDS011;60995;52.154;4.498;2022-08-19T11:35:05;5.63;;;1.67;;
72413;SDS011;60995;52.154;4.498;2022-08-19T11:37:22;8.15;;;2.28;;
72413;SDS011;60995;52.154;4.498;2022-08-19T11:39:39;6.38;;;1.85;;
72413;SDS011;60995;52.154;4.498;2022-08-19T11:41:57;7.28;;;1.88;;
72413;SDS011;60995;52.154;4.498;2022-08-19T11:44:17;7.30;;;2.20;;
72413;SDS011;60995;52.154;4.498;2022-08-19T11:46:35;9.52;;;2.03;;
72413;SDS011;60995;52.154;4.498;2022-08-19T11:48:53;5.20;;;1.83;;
72413;SDS011;60995;52.154;4.498;2022-08-19T11:51:11;7.47;;;1.90;;
72413;SDS011;60995;52.154;4.498;2022-08-19T11:53:35;6.88;;;2.00;;
72413;SDS011;60995;52.154;4.498;2022-08-19T11:55:52;5.75;;;1.70;;
72413;SDS011;60995;52.154;4.498;2022-08-19T11:58:12;6.85;;;2.10;;
72413;SDS011;60995;52.154;4.498;2022-08-19T12:00:34;8.77;;;1.77;;
72413;SDS011;60995;52.154;4.498;2022-08-19T12:02:52;6.05;;;1.60;;
72413;SDS011;60995;52.154;4.498;2022-08-19T12:05:10;9.00;;;2.28;;
72413;SDS011;60995;52.154;4.498;2022-08-19T12:07:27;4.20;;;1.45;;
72413;SDS011;60995;52.154;4.498;2022-08-19T12:09:48;6.60;;;1.83;;
72413;SDS011;60995;52.154;4.498;2022-08-19T12:12:05;4.18;;;1.58;;
72413;SDS011;60995;52.154;4.498;2022-08-19T12:14:23;5.53;;;1.70;;
72413;SDS011;60995;52.154;4.498;2022-08-19T12:16:42;6.70;;;1.63;;
72413;SDS011;60995;52.154;4.498;2022-08-19T12:19:03;7.40;;;2.35;;
72413;SDS011;60995;52.154;4.498;2022-08-19T12:21:22;6.95;;;2.20;;
72413;SDS011;60995;52.154;4.498;2022-08-19T12:23:44;8.15;;;2.95;;
72413;SDS011;60995;52.154;4.498;2022-08-19T12:26:01;4.07;;;1.48;;
72413;SDS011;60995;52.154;4.498;2022-08-19T12:28:21;5.63;;;1.63;;
72413;SDS011;60995;52.154;4.498;2022-08-19T12:30:40;5.43;;;1.98;;
72413;SDS011;60995;52.154;4.498;2022-08-19T12:32:57;5.45;;;2.05;;
72413;SDS011;60995;52.154;4.498;2022-08-19T12:35:13;4.78;;;1.65;;
72413;SDS011;60995;52.154;4.498;2022-08-19T12:37:33;5.07;;;1.58;;
72413;SDS011;60995;52.154;4.498;2022-08-19T12:39:49;4.40;;;1.52;;
72413;SDS011;60995;52.154;4.498;2022-08-19T12:42:06;5.25;;;1.50;;
72413;SDS011;60995;52.154;4.498;2022-08-19T12:44:27;7.15;;;1.92;;
72413;SDS011;60995;52.154;4.498;2022-08-19T12:46:44;6.13;;;1.70;;
72413;SDS011;60995;52.154;4.498;2022-08-19T12:49:05;6.65;;;1.83;;
72413;SDS011;60995;52.154;4.498;2022-08-19T12:51:23;4.65;;;1.50;;
72413;SDS011;60995;52.154;4.498;2022-08-19T12:53:42;5.80;;;1.77;;
72413;SDS011;60995;52.154;4.498;2022-08-19T12:55:59;5.65;;;1.70;;
72413;SDS011;60995;52.154;4.498;2022-08-19T12:58:15;4.85;;;1.88;;
72413;SDS011;60995;52.154;4.498;2022-08-19T13:00:34;4.30;;;1.30;;
72413;SDS011;60995;52.154;4.498;2022-08-19T13:02:52;7.10;;;1.65;;
72413;SDS011;60995;52.154;4.498;2022-08-19T13:05:12;5.70;;;1.55;;
72413;SDS011;60995;52.154;4.498;2022-08-19T13:07:31;4.28;;;1.70;;
72413;SDS011;60995;52.154;4.498;2022-08-19T13:09:50;5.07;;;1.73;;
72413;SDS011;60995;52.154;4.498;2022-08-19T13:12:08;4.45;;;1.90;;
72413;SDS011;60995;52.154;4.498;2022-08-19T13:14:28;5.88;;;2.20;;
72413;SDS011;60995;52.154;4.498;2022-08-19T13:16:47;5.28;;;1.60;;
72413;SDS011;60995;52.154;4.498;2022-08-19T13:19:03;7.55;;;1.88;;
72413;SDS011;60995;52.154;4.498;2022-08-19T13:21:22;4.45;;;1.70;;
72413;SDS011;60995;52.154;4.498;2022-08-19T13:26:00;6.90;;;2.63;;
72413;SDS011;60995;52.154;4.498;2022-08-19T13:30:38;5.75;;;2.10;;
72413;SDS011;60995;52.154;4.498;2022-08-19T13:33:13;5.40;;;1.70;;
72413;SDS011;60995;52.154;4.498;2022-08-19T13:35:30;6.13;;;2.05;;
72413;SDS011;60995;52.154;4.498;2022-08-19T13:37:46;5.50;;;2.10;;
72413;SDS011;60995;52.154;4.498;2022-08-19T13:40:06;5.95;;;1.80;;
72413;SDS011;60995;52.154;4.498;2022-08-19T13:42:39;5.72;;;1.90;;
72413;SDS011;60995;52.154;4.498;2022-08-19T13:44:56;3.25;;;1.55;;
72413;SDS011;60995;52.154;4.498;2022-08-19T13:47:14;5.05;;;1.42;;
72413;SDS011;60995;52.154;4.498;2022-08-19T13:49:30;4.47;;;1.60;;
72413;SDS011;60995;52.154;4.498;2022-08-19T13:51:47;4.93;;;1.50;;
72413;SDS011;60995;52.154;4.498;2022-08-19T13:54:03;4.97;;;1.70;;
72413;SDS011;60995;52.154;4.498;2022-08-19T13:56:20;6.97;;;2.30;;
72413;SDS011;60995;52.154;4.498;2022-08-19T13:58:37;4.50;;;1.77;;
72413;SDS011;60995;52.154;4.498;2022-08-19T14:00:54;4.18;;;1.85;;
72413;SDS011;60995;52.154;4.498;2022-08-19T14:03:11;5.88;;;2.10;;